sensor_id;sensor_type;location;lat;lon;timestamp;P1;P2;P0
65556;PMS3003;52200;53.490;14.376;2022-10-31T10:14:52;48.00;40.60;25.00
65556;PMS3003;52200;53.490;14.376;2022-10-31T10:17:35;51.60;41.60;26.00
65556;PMS3003;52200;53.490;14.376;2022-10-31T10:20:16;48.00;41.00;24.80
65556;PMS3003;52200;53.490;14.376;2022-10-31T10:22:52;49.80;40.80;25.00
65556;PMS3003;52200;53.490;14.376;2022-10-31T10:25:38;44.00;38.00;24.40
65556;PMS3003;52200;53.490;14.376;2022-10-31T10:28:13;43.60;38.00;23.40
65556;PMS3003;52200;53.490;14.376;2022-10-31T10:30:47;43.80;38.40;24.00
65556;PMS3003;52200;53.490;14.376;2022-10-31T10:33:20;43.80;37.00;23.60
65556;PMS3003;52200;53.490;14.376;2022-10-31T10:35:57;47.40;39.20;23.40
65556;PMS3003;52200;53.490;14.376;2022-10-31T10:41:19;47.40;38.00;23.20
65556;PMS3003;52200;53.490;14.376;2022-10-31T10:43:48;48.40;37.60;21.40
65556;PMS3003;52200;53.490;14.376;2022-10-31T10:46:19;40.20;35.40;22.60
65556;PMS3003;52200;53.490;14.376;2022-10-31T10:49:51;47.00;37.80;23.80
65556;PMS3003;52200;53.490;14.376;2022-10-31T10:51:59;45.40;37.40;23.00
65556;PMS3003;52200;53.490;14.376;2022-10-31T11:00:18;43.60;35.80;22.00
65556;PMS3003;52200;53.490;14.376;2022-10-31T11:02:46;48.20;37.80;22.80
65556;PMS3003;52200;53.490;14.376;2022-10-31T11:07:50;43.20;37.00;23.00
65556;PMS3003;52200;53.490;14.376;2022-10-31T11:10:16;45.75;37.00;23.00
65556;PMS3003;52200;53.490;14.376;2022-10-31T11:12:43;46.20;38.60;22.60
65556;PMS3003;52200;53.490;14.376;2022-10-31T11:15:18;43.80;37.40;23.40
65556;PMS3003;52200;53.490;14.376;2022-10-31T11:17:48;47.60;38.20;23.80
65556;PMS3003;52200;53.490;14.376;2022-10-31T11:22:42;48.00;38.25;23.25
65556;PMS3003;52200;53.490;14.376;2022-10-31T11:27:44;48.00;39.60;24.00
65556;PMS3003;52200;53.490;14.376;2022-10-31T11:30:12;47.60;39.00;23.00
65556;PMS3003;52200;53.490;14.376;2022-10-31T11:32:47;47.40;38.00;23.80
65556;PMS3003;52200;53.490;14.376;2022-10-31T11:35:18;50.40;38.20;22.60
65556;PMS3003;52200;53.490;14.376;2022-10-31T11:37:47;45.00;37.00;23.60
65556;PMS3003;52200;53.490;14.376;2022-10-31T11:40:16;42.40;37.00;24.00
65556;PMS3003;52200;53.490;14.376;2022-10-31T11:42:50;48.60;39.80;24.40
65556;PMS3003;52200;53.490;14.376;2022-10-31T11:47:59;46.00;37.40;24.00
65556;PMS3003;52200;53.490;14.376;2022-10-31T11:50:34;42.60;37.20;23.00
65556;PMS3003;52200;53.490;14.376;2022-10-31T11:53:03;49.00;41.00;24.80
65556;PMS3003;52200;53.490;14.376;2022-10-31T11:55:38;47.80;39.00;24.00
65556;PMS3003;52200;53.490;14.376;2022-10-31T11:58:04;48.00;37.40;23.60
65556;PMS3003;52200;53.490;14.376;2022-10-31T12:00:50;46.80;37.60;23.40
65556;PMS3003;52200;53.490;14.376;2022-10-31T12:08:29;46.40;39.40;23.60
65556;PMS3003;52200;53.490;14.376;2022-10-31T12:11:02;45.60;38.40;23.80
65556;PMS3003;52200;53.490;14.376;2022-10-31T12:13:48;44.00;38.00;23.60
65556;PMS3003;52200;53.490;14.376;2022-10-31T12:16:34;48.20;41.00;24.00
65556;PMS3003;52200;53.490;14.376;2022-10-31T12:24:50;44.40;36.60;23.00
65556;PMS3003;52200;53.490;14.376;2022-10-31T12:33:20;47.60;38.60;24.00
65556;PMS3003;52200;53.490;14.376;2022-10-31T12:41:24;51.60;40.80;25.80
65556;PMS3003;52200;53.490;14.376;2022-10-31T12:44:05;50.60;42.00;26.20
65556;PMS3003;52200;53.490;14.376;2022-10-31T12:52:31;53.00;42.80;26.40
65556;PMS3003;52200;53.490;14.376;2022-10-31T12:57:58;50.40;40.80;25.40
65556;PMS3003;52200;53.490;14.376;2022-10-31T13:00:30;56.00;43.20;26.40
65556;PMS3003;52200;53.490;14.376;2022-10-31T13:03:09;52.00;40.40;26.00
65556;PMS3003;52200;53.490;14.376;2022-10-31T13:05:48;51.80;42.40;26.00
65556;PMS3003;52200;53.490;14.376;2022-10-31T13:11:39;46.80;38.80;23.00
65556;PMS3003;52200;53.490;14.376;2022-10-31T13:14:13;51.20;41.20;26.00
65556;PMS3003;52200;53.490;14.376;2022-10-31T13:16:50;52.40;43.20;25.60
65556;PMS3003;52200;53.490;14.376;2022-10-31T13:19:30;56.40;44.00;26.80
65556;PMS3003;52200;53.490;14.376;2022-10-31T13:24:43;56.00;44.80;26.60
65556;PMS3003;52200;53.490;14.376;2022-10-31T13:30:17;57.40;45.60;27.00
65556;PMS3003;52200;53.490;14.376;2022-10-31T13:38:38;54.80;42.60;27.00
65556;PMS3003;52200;53.490;14.376;2022-10-31T13:46:37;59.00;45.60;28.00
65556;PMS3003;52200;53.490;14.376;2022-10-31T13:49:20;60.00;46.20;28.60
65556;PMS3003;52200;53.490;14.376;2022-10-31T13:51:51;59.40;46.80;28.20
65556;PMS3003;52200;53.490;14.376;2022-10-31T13:54:31;56.00;43.20;26.40
65556;PMS3003;52200;53.490;14.376;2022-10-31T13:56:58;58.40;43.40;27.40
65556;PMS3003;52200;53.490;14.376;2022-10-31T13:59:28;57.20;45.20;27.00
65556;PMS3003;52200;53.490;14.376;2022-10-31T14:02:00;63.60;45.20;28.00
65556;PMS3003;52200;53.490;14.376;2022-10-31T14:07:32;59.00;46.60;28.20
65556;PMS3003;52200;53.490;14.376;2022-10-31T14:10:02;60.80;45.80;28.60
65556;PMS3003;52200;53.490;14.376;2022-10-31T14:15:14;57.40;45.60;28.00
65556;PMS3003;52200;53.490;14.376;2022-10-31T14:20:24;56.40;43.60;27.00
65556;PMS3003;52200;53.490;14.376;2022-10-31T14:22:56;57.40;45.80;27.00
65556;PMS3003;52200;53.490;14.376;2022-10-31T14:28:00;59.20;46.00;27.80
65556;PMS3003;52200;53.490;14.376;2022-10-31T14:30:28;62.00;44.40;27.40
65556;PMS3003;52200;53.490;14.376;2022-10-31T14:32:59;56.20;40.60;24.20
65556;PMS3003;52200;53.490;14.376;2022-10-31T14:41:48;52.40;39.80;23.00
65556;PMS3003;52200;53.490;14.376;2022-10-31T14:44:46;50.00;37.20;22.80
65556;PMS3003;52200;53.490;14.376;2022-10-31T14:50:32;47.80;38.00;22.40
65556;PMS3003;52200;53.490;14.376;2022-10-31T14:53:03;46.00;37.20;23.40
65556;PMS3003;52200;53.490;14.376;2022-10-31T14:55:31;49.80;39.20;23.80
65556;PMS3003;52200;53.490;14.376;2022-10-31T14:58:01;53.40;41.40;24.00
65556;PMS3003;52200;53.490;14.376;2022-10-31T15:00:32;58.80;43.20;28.40
65556;PMS3003;52200;53.490;14.376;2022-10-31T15:03:13;52.60;39.60;25.00
65556;PMS3003;52200;53.490;14.376;2022-10-31T15:05:42;49.00;38.60;24.00
65556;PMS3003;52200;53.490;14.376;2022-10-31T15:08:25;44.00;35.20;21.20
65556;PMS3003;52200;53.490;14.376;2022-10-31T15:10:56;44.80;33.20;19.00
65556;PMS3003;52200;53.490;14.376;2022-10-31T15:13:21;41.00;35.00;20.75
65556;PMS3003;52200;53.490;14.376;2022-10-31T15:15:47;38.75;29.75;18.00
65556;PMS3003;52200;53.490;14.376;2022-10-31T15:18:17;38.60;32.00;20.40
65556;PMS3003;52200;53.490;14.376;2022-10-31T15:20:49;35.40;29.00;18.40
65556;PMS3003;52200;53.490;14.376;2022-10-31T15:23:26;36.80;29.00;16.80
65556;PMS3003;52200;53.490;14.376;2022-10-31T15:26:00;33.80;27.60;16.00
65556;PMS3003;52200;53.490;14.376;2022-10-31T15:28:28;32.20;26.00;16.20
65556;PMS3003;52200;53.490;14.376;2022-10-31T15:30:59;33.40;29.20;16.60
65556;PMS3003;52200;53.490;14.376;2022-10-31T15:33:27;32.00;27.40;15.60
65556;PMS3003;52200;53.490;14.376;2022-10-31T15:35:55;28.40;24.00;14.80
65556;PMS3003;52200;53.490;14.376;2022-10-31T15:38:22;34.40;26.40;15.80
65556;PMS3003;52200;53.490;14.376;2022-10-31T15:40:51;28.60;22.60;15.00
65556;PMS3003;52200;53.490;14.376;2022-10-31T15:43:19;25.60;21.40;12.40
65556;PMS3003;52200;53.490;14.376;2022-10-31T15:45:45;30.00;26.00;14.25
65556;PMS3003;52200;53.490;14.376;2022-10-31T15:48:16;28.50;22.50;13.25
65556;PMS3003;52200;53.490;14.376;2022-10-31T15:50:54;32.40;26.80;15.00
65556;PMS3003;52200;53.490;14.376;2022-10-31T15:55:59;35.40;27.80;14.80
65556;PMS3003;52200;53.490;14.376;2022-10-31T15:58:27;32.20;25.80;16.80
65556;PMS3003;52200;53.490;14.376;2022-10-31T16:00:58;35.80;31.00;17.80
65556;PMS3003;52200;53.490;14.376;2022-10-31T16:03:32;38.20;27.60;17.40
65556;PMS3003;52200;53.490;14.376;2022-10-31T16:05:59;33.20;27.00;17.00
65556;PMS3003;52200;53.490;14.376;2022-10-31T16:11:15;33.50;25.75;14.75
65556;PMS3003;52200;53.490;14.376;2022-10-31T16:13:55;29.40;24.00;14.80
65556;PMS3003;52200;53.490;14.376;2022-10-31T16:16:24;32.40;27.60;15.60
65556;PMS3003;52200;53.490;14.376;2022-10-31T16:18:51;26.20;20.40;11.80
65556;PMS3003;52200;53.490;14.376;2022-10-31T16:21:26;27.80;22.00;13.20
65556;PMS3003;52200;53.490;14.376;2022-10-31T16:23:57;32.80;24.60;14.80
65556;PMS3003;52200;53.490;14.376;2022-10-31T16:26:26;38.40;30.80;19.20
65556;PMS3003;52200;53.490;14.376;2022-10-31T16:28:53;46.20;36.80;21.00
65556;PMS3003;52200;53.490;14.376;2022-10-31T16:31:28;42.20;33.00;22.40
65556;PMS3003;52200;53.490;14.376;2022-10-31T16:34:01;38.60;31.20;16.20
65556;PMS3003;52200;53.490;14.376;2022-10-31T16:36:30;33.40;26.80;15.80
65556;PMS3003;52200;53.490;14.376;2022-10-31T16:38:57;27.80;20.20;14.00
65556;PMS3003;52200;53.490;14.376;2022-10-31T16:41:23;26.40;22.00;14.60
65556;PMS3003;52200;53.490;14.376;2022-10-31T16:43:50;25.60;19.20;11.00
65556;PMS3003;52200;53.490;14.376;2022-10-31T16:46:22;26.40;20.20;12.00
65556;PMS3003;52200;53.490;14.376;2022-10-31T16:48:50;27.40;21.20;13.00
65556;PMS3003;52200;53.490;14.376;2022-10-31T16:51:15;22.00;18.50;10.00
65556;PMS3003;52200;53.490;14.376;2022-10-31T16:53:41;29.50;22.50;12.00
65556;PMS3003;52200;53.490;14.376;2022-10-31T16:56:11;27.25;21.00;13.75
65556;PMS3003;52200;53.490;14.376;2022-10-31T16:58:41;28.60;18.80;11.80
65556;PMS3003;52200;53.490;14.376;2022-10-31T17:01:07;27.25;20.00;10.75
65556;PMS3003;52200;53.490;14.376;2022-10-31T17:03:32;26.50;19.50;11.75
65556;PMS3003;52200;53.490;14.376;2022-10-31T17:05:58;29.50;19.75;12.50
65556;PMS3003;52200;53.490;14.376;2022-10-31T17:08:23;23.75;18.25;11.00
65556;PMS3003;52200;53.490;14.376;2022-10-31T17:10:50;29.00;21.00;12.20
65556;PMS3003;52200;53.490;14.376;2022-10-31T17:13:18;25.60;21.40;11.40
65556;PMS3003;52200;53.490;14.376;2022-10-31T17:15:50;35.00;26.60;12.60
65556;PMS3003;52200;53.490;14.376;2022-10-31T17:18:19;29.40;24.00;14.80
65556;PMS3003;52200;53.490;14.376;2022-10-31T17:20:44;67.25;49.00;28.50
65556;PMS3003;52200;53.490;14.376;2022-10-31T17:23:11;85.25;65.00;36.25
65556;PMS3003;52200;53.490;14.376;2022-10-31T17:25:38;67.80;50.20;30.00
65556;PMS3003;52200;53.490;14.376;2022-10-31T17:28:04;66.20;49.00;29.20
65556;PMS3003;52200;53.490;14.376;2022-10-31T17:30:30;57.00;44.00;27.80
65556;PMS3003;52200;53.490;14.376;2022-10-31T17:32:57;56.00;41.60;24.20
65556;PMS3003;52200;53.490;14.376;2022-10-31T17:35:23;50.50;38.00;22.75
65556;PMS3003;52200;53.490;14.376;2022-10-31T17:37:49;52.25;38.50;23.00
65556;PMS3003;52200;53.490;14.376;2022-10-31T17:40:15;46.00;36.00;23.00
65556;PMS3003;52200;53.490;14.376;2022-10-31T17:42:50;51.20;40.60;27.00
65556;PMS3003;52200;53.490;14.376;2022-10-31T17:45:20;33.80;29.40;19.20
65556;PMS3003;52200;53.490;14.376;2022-10-31T17:47:48;34.00;28.00;16.80
65556;PMS3003;52200;53.490;14.376;2022-10-31T17:50:15;36.20;29.20;15.80
65556;PMS3003;52200;53.490;14.376;2022-10-31T17:52:42;35.40;27.00;16.60
65556;PMS3003;52200;53.490;14.376;2022-10-31T17:55:08;31.00;24.00;17.00
65556;PMS3003;52200;53.490;14.376;2022-10-31T17:57:34;32.80;28.60;18.00
65556;PMS3003;52200;53.490;14.376;2022-10-31T18:00:01;25.60;22.00;15.00
65556;PMS3003;52200;53.490;14.376;2022-10-31T18:02:29;25.40;22.00;14.00
65556;PMS3003;52200;53.490;14.376;2022-10-31T18:04:54;29.75;26.00;14.00
65556;PMS3003;52200;53.490;14.376;2022-10-31T18:07:20;27.25;22.75;13.75
65556;PMS3003;52200;53.490;14.376;2022-10-31T18:09:45;28.50;23.75;15.00
65556;PMS3003;52200;53.490;14.376;2022-10-31T18:12:11;33.60;26.00;15.80
65556;PMS3003;52200;53.490;14.376;2022-10-31T18:14:38;33.20;27.40;16.20
65556;PMS3003;52200;53.490;14.376;2022-10-31T18:17:04;34.00;28.25;17.50
65556;PMS3003;52200;53.490;14.376;2022-10-31T18:19:29;40.00;31.00;19.25
65556;PMS3003;52200;53.490;14.376;2022-10-31T18:21:55;55.00;42.50;26.50
65556;PMS3003;52200;53.490;14.376;2022-10-31T18:24:20;51.75;38.00;23.50
65556;PMS3003;52200;53.490;14.376;2022-10-31T18:26:45;37.00;30.75;19.50
65556;PMS3003;52200;53.490;14.376;2022-10-31T18:29:12;51.80;39.40;24.20
65556;PMS3003;52200;53.490;14.376;2022-10-31T18:31:37;54.75;40.50;24.00
65556;PMS3003;52200;53.490;14.376;2022-10-31T18:34:03;54.50;40.75;25.75
65556;PMS3003;52200;53.490;14.376;2022-10-31T18:36:29;57.25;42.75;27.00
65556;PMS3003;52200;53.490;14.376;2022-10-31T18:38:54;62.25;46.25;30.00
65556;PMS3003;52200;53.490;14.376;2022-10-31T18:41:20;68.75;50.75;30.50
65556;PMS3003;52200;53.490;14.376;2022-10-31T18:43:45;79.25;51.75;29.00
65556;PMS3003;52200;53.490;14.376;2022-10-31T18:46:12;81.75;54.50;30.00
65556;PMS3003;52200;53.490;14.376;2022-10-31T18:48:39;78.75;54.75;31.50
65556;PMS3003;52200;53.490;14.376;2022-10-31T18:51:08;82.00;60.25;32.50
65556;PMS3003;52200;53.490;14.376;2022-10-31T18:53:34;115.50;69.00;36.00
65556;PMS3003;52200;53.490;14.376;2022-10-31T18:56:00;101.25;73.50;33.75
65556;PMS3003;52200;53.490;14.376;2022-10-31T18:58:31;114.00;68.50;32.75
65556;PMS3003;52200;53.490;14.376;2022-10-31T19:00:56;99.75;63.25;31.00
65556;PMS3003;52200;53.490;14.376;2022-10-31T19:03:22;109.00;67.33;32.67
65556;PMS3003;52200;53.490;14.376;2022-10-31T19:05:48;121.00;70.00;32.33
65556;PMS3003;52200;53.490;14.376;2022-10-31T19:08:14;131.75;77.25;34.00
65556;PMS3003;52200;53.490;14.376;2022-10-31T19:10:40;115.25;72.00;33.00
65556;PMS3003;52200;53.490;14.376;2022-10-31T19:13:06;104.25;61.75;30.75
65556;PMS3003;52200;53.490;14.376;2022-10-31T19:15:33;100.25;64.75;34.50
65556;PMS3003;52200;53.490;14.376;2022-10-31T19:17:59;77.40;54.00;30.00
65556;PMS3003;52200;53.490;14.376;2022-10-31T19:20:25;68.25;49.25;27.50
65556;PMS3003;52200;53.490;14.376;2022-10-31T19:22:50;66.50;45.25;25.00
65556;PMS3003;52200;53.490;14.376;2022-10-31T19:25:16;58.00;41.50;23.00
65556;PMS3003;52200;53.490;14.376;2022-10-31T19:27:42;45.50;33.25;18.75
65556;PMS3003;52200;53.490;14.376;2022-10-31T19:30:07;48.75;35.75;21.00
65556;PMS3003;52200;53.490;14.376;2022-10-31T19:32:33;40.00;31.60;19.40
65556;PMS3003;52200;53.490;14.376;2022-10-31T19:34:59;41.50;31.75;19.00
65556;PMS3003;52200;53.490;14.376;2022-10-31T19:37:25;33.50;27.25;16.00
65556;PMS3003;52200;53.490;14.376;2022-10-31T19:39:50;38.50;30.75;18.50
65556;PMS3003;52200;53.490;14.376;2022-10-31T19:42:16;33.60;27.60;15.00
65556;PMS3003;52200;53.490;14.376;2022-10-31T19:44:42;28.00;19.25;12.50
65556;PMS3003;52200;53.490;14.376;2022-10-31T19:47:07;31.50;22.50;14.75
65556;PMS3003;52200;53.490;14.376;2022-10-31T19:49:33;28.50;22.75;11.50
65556;PMS3003;52200;53.490;14.376;2022-10-31T19:51:58;27.75;20.50;14.25
65556;PMS3003;52200;53.490;14.376;2022-10-31T19:54:24;39.25;33.00;20.00
65556;PMS3003;52200;53.490;14.376;2022-10-31T19:56:49;41.00;33.50;19.25
65556;PMS3003;52200;53.490;14.376;2022-10-31T19:59:14;36.50;31.25;18.25
65556;PMS3003;52200;53.490;14.376;2022-10-31T20:01:40;37.50;29.25;17.00
65556;PMS3003;52200;53.490;14.376;2022-10-31T20:04:05;32.50;23.50;16.50
65556;PMS3003;52200;53.490;14.376;2022-10-31T20:06:40;31.75;25.75;16.00
65556;PMS3003;52200;53.490;14.376;2022-10-31T20:09:09;31.00;24.80;14.00
65556;PMS3003;52200;53.490;14.376;2022-10-31T20:11:40;32.40;23.60;15.60
65556;PMS3003;52200;53.490;14.376;2022-10-31T20:14:07;26.80;21.80;14.00
65556;PMS3003;52200;53.490;14.376;2022-10-31T20:16:34;33.60;27.20;17.00
65556;PMS3003;52200;53.490;14.376;2022-10-31T20:19:00;35.25;26.75;16.00
65556;PMS3003;52200;53.490;14.376;2022-10-31T20:21:27;33.25;27.00;15.75
65556;PMS3003;52200;53.490;14.376;2022-10-31T20:23:58;36.20;28.60;15.80
65556;PMS3003;52200;53.490;14.376;2022-10-31T20:26:25;33.00;26.20;16.80
65556;PMS3003;52200;53.490;14.376;2022-10-31T20:28:51;31.00;24.00;15.40
65556;PMS3003;52200;53.490;14.376;2022-10-31T20:31:19;36.80;28.40;16.80
65556;PMS3003;52200;53.490;14.376;2022-10-31T20:33:46;41.00;31.40;17.00
65556;PMS3003;52200;53.490;14.376;2022-10-31T20:36:13;39.60;32.00;17.80
65556;PMS3003;52200;53.490;14.376;2022-10-31T20:38:39;40.60;32.00;19.20
65556;PMS3003;52200;53.490;14.376;2022-10-31T20:41:07;39.00;31.20;17.80
65556;PMS3003;52200;53.490;14.376;2022-10-31T20:43:34;46.00;35.00;19.60
65556;PMS3003;52200;53.490;14.376;2022-10-31T20:48:30;37.80;30.80;19.20
65556;PMS3003;52200;53.490;14.376;2022-10-31T20:50:59;41.75;32.50;20.00
65556;PMS3003;52200;53.490;14.376;2022-10-31T20:53:27;38.20;30.20;18.00
65556;PMS3003;52200;53.490;14.376;2022-10-31T20:55:59;35.20;30.00;18.80
65556;PMS3003;52200;53.490;14.376;2022-10-31T20:58:30;72.00;54.75;33.75
65556;PMS3003;52200;53.490;14.376;2022-10-31T21:00:57;64.60;50.20;31.80
65556;PMS3003;52200;53.490;14.376;2022-10-31T21:03:23;82.00;69.75;41.25
65556;PMS3003;52200;53.490;14.376;2022-10-31T21:05:53;70.25;54.50;34.50
65556;PMS3003;52200;53.490;14.376;2022-10-31T21:08:23;46.20;36.20;22.60
65556;PMS3003;52200;53.490;14.376;2022-10-31T21:10:50;43.80;34.00;20.60
65556;PMS3003;52200;53.490;14.376;2022-10-31T21:13:16;38.60;32.00;20.00
65556;PMS3003;52200;53.490;14.376;2022-10-31T21:15:42;41.00;33.00;20.00
65556;PMS3003;52200;53.490;14.376;2022-10-31T21:18:08;45.50;36.50;21.00
65556;PMS3003;52200;53.490;14.376;2022-10-31T21:20:33;38.00;31.50;20.00
65556;PMS3003;52200;53.490;14.376;2022-10-31T21:22:59;39.75;32.25;19.25
65556;PMS3003;52200;53.490;14.376;2022-10-31T21:25:25;37.40;29.00;19.00
65556;PMS3003;52200;53.490;14.376;2022-10-31T21:27:50;40.50;31.75;17.25
65556;PMS3003;52200;53.490;14.376;2022-10-31T21:30:16;39.50;30.75;19.00
65556;PMS3003;52200;53.490;14.376;2022-10-31T21:32:42;48.60;35.20;20.20
65556;PMS3003;52200;53.490;14.376;2022-10-31T21:35:07;45.00;34.50;20.00
65556;PMS3003;52200;53.490;14.376;2022-10-31T21:37:33;37.50;30.75;17.25
65556;PMS3003;52200;53.490;14.376;2022-10-31T21:39:58;48.25;34.25;21.25
65556;PMS3003;52200;53.490;14.376;2022-10-31T21:42:24;46.00;34.00;20.25
65556;PMS3003;52200;53.490;14.376;2022-10-31T21:44:49;48.00;35.50;21.75
65556;PMS3003;52200;53.490;14.376;2022-10-31T21:47:15;37.00;31.80;19.00
65556;PMS3003;52200;53.490;14.376;2022-10-31T21:49:41;44.00;33.80;20.40
65556;PMS3003;52200;53.490;14.376;2022-10-31T21:52:07;36.75;28.25;18.00
65556;PMS3003;52200;53.490;14.376;2022-10-31T21:54:32;45.50;35.00;20.00
65556;PMS3003;52200;53.490;14.376;2022-10-31T21:56:58;40.75;32.75;19.50
65556;PMS3003;52200;53.490;14.376;2022-10-31T21:59:25;44.80;34.80;20.80
65556;PMS3003;52200;53.490;14.376;2022-10-31T22:01:51;47.20;35.00;20.80
65556;PMS3003;52200;53.490;14.376;2022-10-31T22:04:19;45.40;34.40;21.00
65556;PMS3003;52200;53.490;14.376;2022-10-31T22:06:45;48.25;37.50;21.00
65556;PMS3003;52200;53.490;14.376;2022-10-31T22:09:11;44.75;33.75;21.00
65556;PMS3003;52200;53.490;14.376;2022-10-31T22:11:38;47.40;34.00;20.60
65556;PMS3003;52200;53.490;14.376;2022-10-31T22:14:05;44.80;34.00;20.00
65556;PMS3003;52200;53.490;14.376;2022-10-31T22:16:32;50.40;35.00;19.40
65556;PMS3003;52200;53.490;14.376;2022-10-31T22:19:00;47.00;35.00;20.80
65556;PMS3003;52200;53.490;14.376;2022-10-31T22:21:29;45.40;34.20;19.00
65556;PMS3003;52200;53.490;14.376;2022-10-31T22:23:57;47.00;34.00;18.00
65556;PMS3003;52200;53.490;14.376;2022-10-31T22:26:24;51.40;35.60;20.60
65556;PMS3003;52200;53.490;14.376;2022-10-31T22:28:51;45.80;34.80;19.60
65556;PMS3003;52200;53.490;14.376;2022-10-31T22:31:20;49.00;34.60;20.20
65556;PMS3003;52200;53.490;14.376;2022-10-31T22:33:47;47.40;35.00;20.80
65556;PMS3003;52200;53.490;14.376;2022-10-31T22:36:15;52.25;37.50;21.00
65556;PMS3003;52200;53.490;14.376;2022-10-31T22:38:42;48.80;36.20;21.80
65556;PMS3003;52200;53.490;14.376;2022-10-31T22:41:13;52.80;37.00;21.00
65556;PMS3003;52200;53.490;14.376;2022-10-31T22:43:40;49.80;36.00;21.60
65556;PMS3003;52200;53.490;14.376;2022-10-31T22:46:06;48.00;34.00;20.75
65556;PMS3003;52200;53.490;14.376;2022-10-31T22:48:35;45.60;34.00;19.60
65556;PMS3003;52200;53.490;14.376;2022-10-31T22:51:07;49.20;35.00;20.60
65556;PMS3003;52200;53.490;14.376;2022-10-31T22:53:37;42.20;32.00;19.00
65556;PMS3003;52200;53.490;14.376;2022-10-31T22:56:04;43.60;33.00;19.80
65556;PMS3003;52200;53.490;14.376;2022-10-31T22:58:32;44.60;33.40;21.00
65556;PMS3003;52200;53.490;14.376;2022-10-31T23:00:58;43.20;33.60;20.00
65556;PMS3003;52200;53.490;14.376;2022-10-31T23:03:24;41.40;32.40;19.00
65556;PMS3003;52200;53.490;14.376;2022-10-31T23:05:57;44.60;31.80;19.80
65556;PMS3003;52200;53.490;14.376;2022-10-31T23:08:24;46.60;34.60;20.60
65556;PMS3003;52200;53.490;14.376;2022-10-31T23:10:51;44.20;34.00;19.20
65556;PMS3003;52200;53.490;14.376;2022-10-31T23:13:16;45.75;34.75;20.00
65556;PMS3003;52200;53.490;14.376;2022-10-31T23:16:03;44.80;32.00;20.60
65556;PMS3003;52200;53.490;14.376;2022-10-31T23:18:31;52.60;36.80;22.20
65556;PMS3003;52200;53.490;14.376;2022-10-31T23:20:58;41.00;33.40;19.60
65556;PMS3003;52200;53.490;14.376;2022-10-31T23:23:24;48.00;33.00;20.25
65556;PMS3003;52200;53.490;14.376;2022-10-31T23:25:49;49.50;34.00;19.50
65556;PMS3003;52200;53.490;14.376;2022-10-31T23:28:33;43.80;33.80;20.00
65556;PMS3003;52200;53.490;14.376;2022-10-31T23:30:58;44.75;35.00;19.50
65556;PMS3003;52200;53.490;14.376;2022-10-31T23:33:24;45.00;32.75;19.00
65556;PMS3003;52200;53.490;14.376;2022-10-31T23:35:49;43.00;32.75;19.25
65556;PMS3003;52200;53.490;14.376;2022-10-31T23:38:15;47.75;36.25;21.75
65556;PMS3003;52200;53.490;14.376;2022-10-31T23:40:41;53.50;40.00;23.25
65556;PMS3003;52200;53.490;14.376;2022-10-31T23:43:07;42.60;35.00;21.00
65556;PMS3003;52200;53.490;14.376;2022-10-31T23:45:32;45.25;34.50;21.00
65556;PMS3003;52200;53.490;14.376;2022-10-31T23:47:58;48.00;37.50;22.50
65556;PMS3003;52200;53.490;14.376;2022-10-31T23:50:23;48.75;35.75;22.00
65556;PMS3003;52200;53.490;14.376;2022-10-31T23:52:49;50.00;37.50;22.25
65556;PMS3003;52200;53.490;14.376;2022-10-31T23:55:14;53.50;35.25;21.75
65556;PMS3003;52200;53.490;14.376;2022-10-31T23:57:40;51.25;38.00;23.25
